Latest Weather Observations for Trepell

IDQ60801

Issued at 12:02 pm EST Saturday 28 May 2016 (issued every 30 minutes, with the page automatically refreshed every 10 minutes)

About weather observations | Map of weather stations | Latest weather observations for QLD | Other Formats
Station Details ID: 037036 Name: TREPELL AIRPORT Lat: -21.84 Lon: 140.89 Height: 266.2 m
Data from the previous 72 hours. | See also: Recent months at Trepell
Date/Time
EST
Temp
°C
App
Temp
°C
Dew
Point
Rel
Hum
%
Delta-T
°C
Wind Press
QNH
hPa
Press
MSL
hPa
Rain
since 9 am
mm
Dir
 
Spd
km/h
Gust
km/h
Spd
kts
Gust
kts
28/11:30am 20.0 15.6 6.7 42 6.8 SSE 19 30 10 16 1020.0 1019.1 0.0
28/11:00am 19.9 15.6 7.0 43 6.6 SE 19 28 10 15 1020.3 1019.4 0.0
28/10:30am 19.2 15.0 7.6 47 6.0 SSE 19 26 10 14 1020.7 1019.8 0.0
28/10:00am 18.7 13.3 7.8 49 5.6 SSE 26 32 14 17 1020.9 1020.0 0.0
28/09:30am 17.7 14.2 8.8 56 4.7 SSE 17 22 9 12 1021.1 1020.2 0.0
28/09:00am 16.9 14.2 9.1 60 4.1 SSE 13 20 7 11 1021.0 1020.1 0.0
28/08:30am 15.8 13.9 9.0 64 3.5 S 9 13 5 7 1020.8 1019.9 0.0
28/08:00am 14.7 13.1 8.6 67 3.1 SSW 7 9 4 5 1020.3 1019.4 0.0
28/07:30am 13.6 12.4 8.2 70 2.7 SSW 4 6 2 3 1019.6 1018.8 0.0
28/07:00am 13.2 11.6 8.1 71 2.6 SSW 6 7 3 4 1019.3 1018.4 0.0
28/06:30am 13.5 11.8 8.4 71 2.6 SSW 7 9 4 5 1019.1 1018.2 0.0
28/06:00am 14.0 11.9 8.4 69 2.8 SSW 9 11 5 6 1018.8 1017.9 0.0
28/05:30am 14.5 12.5 8.7 68 3.0 S 9 11 5 6 1018.5 1017.6 0.0
28/05:00am 14.7 12.6 8.4 66 3.2 S 9 11 5 6 1018.4 1017.5 0.0
28/04:30am 15.2 13.2 8.7 65 3.3 S 9 11 5 6 1018.3 1017.4 0.0
28/04:00am 15.2 13.1 8.4 64 3.5 S 9 15 5 8 1018.1 1017.2 0.0
28/03:30am 15.6 13.1 8.4 62 3.7 S 11 15 6 8 1017.8 1016.9 0.0
28/03:00am 15.9 12.6 8.2 60 3.9 SSW 15 19 8 10 1017.9 1017.0 0.0
28/02:30am 16.1 12.3 7.6 57 4.3 SSW 17 20 9 11 1017.8 1016.9 0.0
28/02:00am 16.4 12.9 7.3 55 4.6 S 15 20 8 11 1017.9 1017.0 0.0
28/01:30am 16.8 12.9 7.2 53 4.8 SSW 17 22 9 12 1017.8 1016.9 0.0
28/01:00am 17.2 13.1 7.8 54 4.8 SSW 19 24 10 13 1017.8 1016.9 0.0
28/12:30am 17.6 13.5 7.9 53 5.0 S 19 24 10 13 1017.8 1016.9 0.0
28/12:00am 18.2 13.6 8.2 52 5.2 S 22 28 12 15 1018.0 1017.1 0.0
 
Date/Time
EST
Temp
°C
App
Temp
°C
Dew
Point
Rel
Hum
%
Delta-T
°C
Wind Press
QNH
hPa
Press
MSL
hPa
Rain
since 9 am
mm
Dir
 
Spd
km/h
Gust
km/h
Spd
kts
Gust
kts
27/11:30pm 18.7 14.1 8.1 50 5.5 S 22 28 12 15 1017.9 1017.0 0.0
27/11:00pm 19.2 15.7 8.8 51 5.5 S 17 22 9 12 1017.8 1016.9 0.0
27/10:30pm 19.6 15.6 9.2 51 5.6 SSW 20 26 11 14 1017.7 1016.8 0.0
27/10:00pm 19.9 16.6 9.5 51 5.6 SSW 17 20 9 11 1017.6 1016.7 0.0
27/09:30pm 20.4 17.2 9.9 51 5.7 S 17 22 9 12 1017.5 1016.6 0.0
27/09:00pm 20.7 16.2 9.9 50 5.9 S 24 32 13 17 1017.5 1016.6 0.0
27/08:30pm 21.2 16.7 10.1 49 6.1 S 24 32 13 17 1017.4 1016.5 0.0
27/08:00pm 21.8 16.2 10.3 48 6.3 S 30 41 16 22 1016.9 1016.0 0.0
27/07:30pm 23.0 19.1 10.8 46 6.8 S 22 30 12 16 1016.3 1015.4 0.0
27/07:00pm 23.8 19.6 11.2 45 7.1 SSW 24 33 13 18 1015.8 1014.9 0.0
27/06:30pm 24.5 19.9 11.1 43 7.6 SSW 26 33 14 18 1015.4 1014.5 0.0
27/06:00pm 25.2 21.0 11.0 41 8.1 S 24 33 13 18 1015.1 1014.2 0.0
27/05:30pm 26.1 20.6 10.7 38 8.7 SSW 30 43 16 23 1014.7 1013.8 0.0
27/05:00pm 27.4 22.4 11.0 36 9.4 SSW 28 39 15 21 1014.3 1013.4 0.0
27/04:30pm 28.1 23.9 11.2 35 9.8 SSW 24 33 13 18 1014.0 1013.1 0.0
27/04:00pm 29.0 25.1 12.0 35 10.0 SSW 24 32 13 17 1013.8 1012.9 0.0
27/03:30pm 29.1 24.8 12.1 35 10.0 SSW 26 33 14 18 1013.6 1012.7 0.0
27/03:00pm 30.2 26.2 13.0 34 10.3 SW 26 33 14 18 1013.5 1012.6 0.0
27/02:30pm 29.4 25.3 12.8 36 9.9 SSW 26 35 14 19 1013.4 1012.5 0.0
27/02:00pm 29.7 26.5 13.0 35 10.0 SW 22 35 12 19 1013.5 1012.6 0.0
27/01:30pm 29.4 26.5 12.8 36 9.9 SSW 20 30 11 16 1013.9 1013.0 0.0
27/01:00pm 29.8 27.1 13.5 36 9.8 SSW 20 28 11 15 1014.2 1013.3 0.0
27/12:30pm 29.8 26.0 12.3 34 10.4 SW 24 33 13 18 1014.5 1013.6 0.0
27/12:00pm 29.7 26.5 13.0 35 10.0 WSW 22 32 12 17 1014.8 1013.9 0.0
27/11:30am 29.1 26.0 13.3 37 9.5 SSW 22 30 12 16 1015.1 1014.2 0.0
27/11:00am 29.6 25.7 13.4 37 9.8 WSW 26 33 14 18 1015.2 1014.3 0.0
27/10:30am 29.6 25.8 12.5 35 10.2 WSW 24 32 13 17 1015.5 1014.6 0.0
27/10:00am 28.6 25.8 13.3 39 9.2 WNW 20 28 11 15 1015.3 1014.4 0.0
27/09:30am 27.1 27.4 13.4 42 8.2 NNW 4 7 2 4 1015.4 1014.5 0.0
27/09:00am 25.5 26.4 13.0 46 7.4 CALM 0 0 0 0 1015.1 1014.2 0.0
27/08:30am 24.3 25.3 13.2 50 6.5 CALM 0 2 0 1 1015.0 1014.1 0.0
27/08:00am 22.4 21.7 13.2 56 5.4 WNW 9 11 5 6 1014.6 1013.7 0.0
27/07:30am 20.7 19.8 12.7 60 4.6 WNW 9 9 5 5 1014.0 1013.1 0.0
27/07:00am 20.4 19.4 12.4 60 4.6 WNW 9 11 5 6 1013.6 1012.7 0.0
27/06:30am 21.5 20.8 13.2 59 4.8 NW 9 11 5 6 1013.3 1012.4 0.0
27/06:00am 20.5 21.1 13.0 62 4.3 W 2 6 1 3 1013.4 1012.5 0.0
27/05:30am 20.9 19.6 12.6 59 4.7 SW 11 15 6 8 1013.2 1012.3 0.0
27/05:12am 21.5 19.8 12.4 56 5.2 S 13 19 7 10 1013.2 1012.3 0.0
27/05:00am 22.4 20.1 12.9 55 5.5 S 17 24 9 13 1013.1 1012.2 0.0
27/04:54am 22.7 21.2 13.2 55 5.5 SW 13 22 7 12 1013.1 1012.2 0.0
27/04:37am 21.5 20.0 13.2 59 4.8 NW 13 15 7 8 1012.7 1011.7 0.0
27/04:30am 21.6 20.1 13.2 59 4.9 NW 13 15 7 8 1012.7 1011.7 0.0
27/04:21am 21.8 20.3 13.2 58 5.0 NW 13 15 7 8 1012.7 1011.7 0.0
27/04:00am 21.9 20.5 13.3 58 5.0 NW 13 15 7 8 1012.9 1011.9 0.0
27/03:30am 21.8 20.2 12.9 57 5.1 NW 13 15 7 8 1013.0 1012.1 0.0
27/03:00am 22.0 20.5 13.1 57 5.2 NW 13 15 7 8 1013.0 1012.1 0.0
27/02:30am 22.2 20.8 13.3 57 5.2 NW 13 15 7 8 1013.1 1012.2 0.0
27/02:00am 22.7 21.2 13.2 55 5.5 NW 13 15 7 8 1013.3 1012.4 0.0
27/01:30am 23.1 21.2 13.0 53 5.9 NW 15 17 8 9 1013.6 1012.7 0.0
27/01:00am 23.1 21.6 13.0 53 5.9 NW 13 15 7 8 1013.5 1012.6 0.0
27/12:30am 23.4 22.4 13.3 53 5.9 NW 11 13 6 7 1013.5 1012.6 0.0
27/12:00am 23.7 22.2 13.0 51 6.2 NW 13 15 7 8 1013.5 1012.6 0.0
 
Date/Time
EST
Temp
°C
App
Temp
°C
Dew
Point
Rel
Hum
%
Delta-T
°C
Wind Press
QNH
hPa
Press
MSL
hPa
Rain
since 9 am
mm
Dir
 
Spd
km/h
Gust
km/h
Spd
kts
Gust
kts
26/11:30pm 24.2 22.7 13.1 50 6.5 NW 13 13 7 7 1013.7 1012.8 0.0
26/11:00pm 24.3 22.7 12.9 49 6.7 NW 13 13 7 7 1013.8 1012.9 0.0
26/10:30pm 24.4 23.2 12.7 48 6.8 NW 11 13 6 7 1014.0 1013.1 0.0
26/10:00pm 25.0 23.7 12.6 46 7.2 WNW 11 11 6 6 1014.1 1013.2 0.0
26/09:30pm 25.2 24.2 12.4 45 7.4 W 9 9 5 5 1014.3 1013.4 0.0
26/09:00pm 25.7 25.2 12.5 44 7.7 WSW 7 9 4 5 1014.3 1013.4 0.0
26/08:30pm 26.2 25.2 12.3 42 8.1 WSW 9 9 5 5 1014.1 1013.2 0.0
26/08:00pm 27.0 26.5 12.6 41 8.5 WSW 7 9 4 5 1013.6 1012.7 0.0
26/07:30pm 27.3 26.2 12.1 39 8.9 WSW 9 9 5 5 1013.3 1012.4 0.0
26/07:00pm 28.1 27.0 12.0 36 9.4 WSW 9 13 5 7 1012.9 1011.9 0.0
26/06:30pm 29.0 27.5 12.0 35 10.0 WSW 11 13 6 7 1012.5 1011.5 0.0
26/06:00pm 30.1 27.8 11.6 32 10.9 WSW 15 19 8 10 1012.2 1011.2 0.0
26/05:30pm 31.3 28.2 11.7 30 11.6 W 19 26 10 14 1012.3 1011.3 0.0
26/05:00pm 31.8 28.8 12.1 30 11.7 WSW 19 24 10 13 1012.1 1011.1 0.0
26/04:30pm 32.0 29.5 12.3 30 11.8 W 17 24 9 13 1012.0 1011.0 0.0
26/04:00pm 32.1 29.6 12.3 29 11.9 WSW 17 24 9 13 1011.7 1010.8 0.0
26/03:30pm 32.3 29.9 12.5 30 11.9 W 17 24 9 13 1011.8 1010.9 0.0
26/03:00pm 32.1 29.2 12.8 30 11.6 W 20 33 11 18 1012.2 1011.2 0.0
26/02:30pm 32.2 29.3 12.4 30 11.9 WSW 19 30 10 16 1012.5 1011.5 0.0
26/02:00pm 32.3 29.3 12.5 30 11.9 W 20 32 11 17 1012.8 1011.8 0.0
26/01:30pm 31.4 28.5 12.2 30 11.4 NW 19 28 10 15 1013.1 1012.2 0.0
26/01:00pm 31.1 28.7 12.5 32 11.1 WSW 17 30 9 16 1013.7 1012.8 0.0
26/12:30pm 31.1 28.7 12.5 32 11.1 NW 17 26 9 14 1014.3 1013.4 0.0
26/12:00pm 30.9 28.0 12.8 33 10.9 W 20 28 11 15 1014.9 1014.0 0.0
26/11:30am 30.8 28.2 13.1 34 10.7 WNW 19 26 10 14 1015.3 1014.4 0.0
26/11:00am 30.4 28.5 14.1 37 9.9 WNW 17 24 9 13 1015.7 1014.8 0.0
26/10:30am 30.2 27.9 14.7 39 9.5 WNW 20 26 11 14 1016.0 1015.0 0.0
26/10:00am 29.3 26.8 15.1 42 8.8 WNW 22 28 12 15 1015.8 1014.9 0.0
26/09:30am 28.4 26.3 16.3 47 7.6 WNW 22 28 12 15 1016.0 1015.0 0.0
26/09:00am 27.1 25.5 16.4 52 6.7 WNW 20 24 11 13 1015.8 1014.9 0.0
26/08:30am 25.3 24.4 15.9 56 5.8 NW 15 19 8 10 1015.6 1014.7 0.0
26/08:00am 23.1 23.4 15.9 64 4.4 NW 9 11 5 6 1015.2 1014.3 0.0
26/07:30am 20.7 21.9 15.0 70 3.4 NNW 2 7 1 4 1014.9 1014.0 0.0
26/07:00am 20.4 20.3 15.0 71 3.2 NNW 9 9 5 5 1014.6 1013.7 0.0
26/06:30am 19.7 19.6 13.9 69 3.4 N 7 9 4 5 1014.3 1013.4 0.0
26/06:00am 19.9 19.8 14.0 69 3.4 NW 7 9 4 5 1014.2 1013.3 0.0
26/05:30am 20.0 19.5 13.7 67 3.7 NNW 9 9 5 5 1014.0 1013.1 0.0
26/05:00am 19.9 19.2 13.1 65 3.9 NNW 9 9 5 5 1013.8 1012.9 0.0
26/04:30am 19.6 19.0 12.4 63 4.1 NNW 7 9 4 5 1013.8 1012.9 0.0
26/04:00am 19.9 19.3 12.4 62 4.3 NNW 7 9 4 5 1013.8 1012.9 0.0
26/03:30am 20.2 19.3 12.7 62 4.3 N 9 9 5 5 1013.9 1013.0 0.0
26/03:00am 20.3 19.4 12.5 61 4.4 NNW 9 11 5 6 1014.1 1013.2 0.0
26/02:30am 21.9 20.9 13.3 58 5.0 NNW 11 11 6 6 1014.1 1013.2 0.0
26/02:00am 20.9 20.4 12.6 59 4.7 NNW 7 9 4 5 1014.3 1013.4 0.0
26/01:30am 21.3 20.6 13.2 60 4.7 N 9 9 5 5 1014.5 1013.6 0.0
26/01:00am 21.9 21.0 12.7 56 5.3 NNW 9 9 5 5 1014.6 1013.7 0.0
26/12:30am 22.2 21.8 13.0 56 5.3 NNW 7 7 4 4 1014.6 1013.7 0.0
26/12:00am 21.9 21.4 12.5 55 5.4 NNW 7 7 4 4 1014.9 1014.0 0.0
 
Date/Time
EST
Temp
°C
App
Temp
°C
Dew
Point
Rel
Hum
%
Delta-T
°C
Wind Press
QNH
hPa
Press
MSL
hPa
Rain
since 9 am
mm
Dir
 
Spd
km/h
Gust
km/h
Spd
kts
Gust
kts
25/11:30pm 22.1 21.6 12.6 55 5.5 NE 7 9 4 5 1015.0 1014.1 0.0
25/11:00pm 22.4 22.1 12.6 54 5.6 NNE 6 7 3 4 1015.0 1014.1 0.0
25/10:30pm 23.0 22.1 12.6 52 6.0 N 9 9 5 5 1015.2 1014.3 0.0
25/10:00pm 24.5 22.9 12.8 48 6.8 NNW 13 13 7 7 1015.2 1014.3 0.0
25/09:30pm 24.6 23.8 12.9 48 6.8 NNW 9 11 5 6 1015.2 1014.3 0.0
25/09:00pm 25.4 24.9 12.6 45 7.5 NW 7 9 4 5 1015.1 1014.2 0.0
25/08:30pm 25.7 24.8 12.5 44 7.7 NW 9 9 5 5 1015.0 1014.1 0.0
25/08:00pm 26.1 25.6 12.5 42 8.0 WNW 7 7 4 4 1014.6 1013.7 0.0
25/07:30pm 26.4 25.6 11.7 40 8.5 NW 7 7 4 4 1014.2 1013.3 0.0
25/07:00pm 27.5 26.4 11.9 38 9.1 NNW 9 11 5 6 1013.8 1012.9 0.0
25/06:30pm 27.4 26.1 11.4 37 9.2 N 9 11 5 6 1013.4 1012.5 0.0
25/06:00pm 28.5 26.0 11.1 34 10.1 N 15 19 8 10 1013.1 1012.2 0.0
25/05:30pm 29.5 27.0 11.1 32 10.7 N 15 19 8 10 1012.8 1011.8 0.0
25/05:00pm 30.2 27.7 11.2 31 11.1 N 15 22 8 12 1012.6 1011.6 0.0
25/04:30pm 30.2 27.5 11.7 32 10.9 NNE 17 24 9 13 1012.5 1011.5 0.0
25/04:00pm 30.5 27.4 11.5 31 11.2 NNE 19 24 10 13 1012.5 1011.5 0.0
25/03:30pm 30.5 27.2 11.0 30 11.4 NNE 19 28 10 15 1012.6 1011.6 0.0
25/03:00pm 30.9 27.9 11.8 31 11.3 NNE 19 28 10 15 1012.8 1011.8 0.0
25/02:30pm 30.6 27.4 11.1 30 11.4 NNE 19 30 10 16 1013.0 1012.1 0.0
25/02:00pm 30.4 27.0 11.4 31 11.1 NNE 20 26 11 14 1013.5 1012.6 0.0
25/01:30pm 30.1 26.8 11.6 32 10.9 NNE 20 30 11 16 1013.8 1012.9 0.0
25/01:00pm 30.2 27.1 12.1 32 10.7 NNE 20 32 11 17 1014.4 1013.5 0.0
25/12:30pm 29.4 26.3 12.3 34 10.1 NNE 20 30 11 16 1015.1 1014.2 0.0

Other Formats:

Comma delimited format used in spreadsheet applications
http://www.bom.gov.au/fwo/IDQ60801/IDQ60801.94338.axf

JavaScript Object Notation format (JSON) in row-major order
http://www.bom.gov.au/fwo/IDQ60801/IDQ60801.94338.json